Middleburg, North Carolina
Current Conditions -  °F | °C
As of 9:35 PM on Wednesday 26 Nov 2014 (Local Time) from KHNZ Reporting Station
Overcast Overcast  
Wind Chill: 37°   Ceiling: 3100
Heat Index: 40°   Visibility: 10mi
Dew Point: 38°   Wind: 5mph
Humidity: 93%   Direction: 220°SW
Pressure: 30.06"   Gusts: NA
Location:  36.4°N, 78.32°W
Report Text: KHNZ 270235Z AUTO 22004KT 10SM OVC031 05/04 A3006 RMK AO2 T00460036
Loading
Personal Weather Stations






























Interactive Weather Map New forecast layout! Learn more

10-Day Weather Forecast

Advertisements
Track Severe Weather on mobile